Flight Track Log - Related Links

Times and Time Zones

All times are in EST time to prevent confusion due to time zone crossing. See the N911PJ flight status page for this flight to view local times or setup timezone preferences in your user account.

Time Position Orientation Groundspeed Altitude Reporting Facility
EST Latitude Longitude Course Direction KTS MPH feet Rate Location/Type
Thu 01:26:02 PM 47.1669 -101.6383 201° Southwest 179 206 8,400  Level Minneapolis Center
Thu 01:27:04 PM 47.1231 -101.6628 201° Southwest 179 206 10,300 1,887 Climbing Minneapolis Center
Thu 01:28:06 PM 47.0764 -101.6872 200° South 177 204 12,300 1,790 Climbing Minneapolis Center
Thu 01:29:08 PM 47.0208 -101.7117 197° South 190 219 14,000 1,935 Climbing Minneapolis Center
Thu 01:30:10 PM 46.9528 -101.7453 199° South 207 238 16,300 1,887 Climbing Minneapolis Center
Thu 01:31:12 PM 46.8953 -101.7717 197° South 213 245 17,900 1,452 Climbing Minneapolis Center
Thu 01:32:14 PM 46.8344 -101.8011 198° South 221 254 19,300 1,392 Climbing Minneapolis Center
Thu 01:33:17 PM 46.7719 -101.8306 198° South 230 265 20,800 1,440 Climbing Minneapolis Center
Thu 01:34:19 PM 46.7061 -101.8608 198° South 240 276 22,300 1,355 Climbing Minneapolis Center
Thu 01:35:21 PM 46.6392 -101.8917 198° South 247 284 23,600 823 Climbing Minneapolis Center
Thu 01:36:23 PM 46.5669 -101.9261 198° South 259 298 24,000 194 Climbing Minneapolis Center
Thu 01:37:25 PM 46.4692 -101.9722 198° South 290 334 24,000  Level Minneapolis Center
Thu 01:38:27 PM 46.3850 -102.0128 198° South 307 353 24,000  Level Minneapolis Center
Thu 01:39:29 PM 46.3039 -102.0500 198° South 309 356 24,000  Level Minneapolis Center
Thu 01:40:31 PM 46.2219 -102.0872 197° South 308 354 24,000  Level Minneapolis Center
Thu 01:41:33 PM 46.1325 -102.1303 198° South 307 353 24,000  Level Minneapolis Center
Thu 01:42:35 PM 46.0522 -102.1661 197° South 305 351 24,000  Level Minneapolis Center
Thu 01:43:37 PM 45.9731 -102.2036 198° South 303 349 24,000  Level Minneapolis Center
Thu 01:44:40 PM 45.8942 -102.2400 198° South 300 345 24,000  Level Minneapolis Center
Thu 01:45:42 PM 45.7986 -102.2842 198° South 300 345 24,000  Level Minneapolis Center
Thu 01:46:44 PM 45.7200 -102.3197 198° South 298 343 24,000  Level Minneapolis Center
Thu 01:47:46 PM 45.6408 -102.3550 197° South 298 343 24,000  Level Minneapolis Center
Thu 01:48:48 PM 45.5636 -102.3903 198° South 294 338 24,000  Level Minneapolis Center
Thu 01:49:50 PM 45.4869 -102.4253 198° South 292 336 24,000  Level Minneapolis Center
Thu 01:50:52 PM 45.3967 -102.4672 198° South 288 331 24,000  Level Minneapolis Center
Thu 01:51:54 PM 45.3206 -102.4997 197° South 287 330 24,000 -145 Level Minneapolis Center
Thu 01:52:56 PM 45.2433 -102.5347 198° South 289 333 23,700 -774 Descending Minneapolis Center
Thu 01:53:58 PM 45.1644 -102.5692 197° South 294 338 22,400 -1,258 Descending Minneapolis Center
Thu 01:55:00 PM 45.0825 -102.6053 197° South 303 349 21,100 -1,248 Descending Minneapolis Center
Thu 01:56:03 PM 45.0025 -102.6406 197° South 303 349 19,800 -1,392 Descending Minneapolis Center
Thu 01:57:05 PM 44.9056 -102.6853 198° South 304 350 18,200 -1,180 Descending Minneapolis Center
Thu 01:58:05 PM 44.8275 -102.7189 197° South 301 346 17,400 -960 Descending Denver Center
Thu 01:58:20 PM 44.8097 -102.7297 203° Southwest 299 344 17,000 -1,452 Descending Denver Center
Thu 01:59:07 PM 44.7475 -102.7528 195° South 300 345 15,900 -1,600 Descending Denver Center
Thu 01:59:20 PM 44.7278 -102.7656 205° Southwest 296 341 15,400 -1,452 Descending Denver Center
Thu 02:00:09 PM 44.6683 -102.7889 196° South 300 345 14,400 -1,377 Descending Denver Center
Thu 02:00:21 PM 44.6519 -102.7994 205° Southwest 294 338 14,000 -1,161 Descending Denver Center
Thu 02:01:11 PM 44.5953 -102.8228 196° South 289 333 13,200 -1,254 Descending Denver Center
Thu 02:01:28 PM 44.5681 -102.8358 199° South 286 329 12,600 -1,355 Descending Denver Center
Thu 02:02:13 PM 44.5167 -102.8519 193° South 290 334 11,800 -1,400 Descending Denver Center
Thu 02:02:28 PM 44.4897 -102.8672 202° Southwest 277 319 11,200 -1,355 Descending Denver Center
Thu 02:03:15 PM 44.4394 -102.8814 191° South 290 334 10,400 -1,309 Descending Denver Center
Thu 02:03:23 PM 44.4258 -102.8947 215° Southwest 273 314 10,000 -968 Descending Denver Center
Thu 02:04:17 PM 44.3611 -102.9153 193° South 288 331 9,400 -1,200 Descending Denver Center
Thu 02:04:23 PM 44.3578 -102.9231 239° Southwest 270 311 8,800 -1,701 Descending Denver Center
Thu 02:05:24 PM 44.3139 -103.0008 232° Southwest 242 278 7,500 -885 Descending Denver Center
Thu 02:06:25 PM 44.2839 -103.0864 244° Southwest 229 264 7,000 -595 Descending Denver Center
Thu 02:07:25 PM 44.2608 -103.1608 247° West 219 252 6,300 -545 Descending Denver Center
Thu 02:08:26 PM 44.2142 -103.1917 205° Southwest 187 215 5,900 -446 Descending Denver Center
Thu 02:09:26 PM 44.1725 -103.1533 147° Southeast 179 206 5,400 -330 Descending Denver Center
Thu 02:10:15 PM 44.1392 -103.1303 154° Southeast 168 193 5,300 -440 Descending Denver Center
Thu 02:11:15 PM 44.1033 -103.1019 150° Southeast 134 154 4,600 -744 Descending Denver Center
Thu 02:12:16 PM 44.0725 -103.0811 154° Southeast 116 133 3,800 -787 Descending Denver Center

Login

Don't have an account? Register now (free) for customized features, flight alerts, and more!